Time;durP1;ratioP1;P1;durP2;ratioP2;P2;SDS_P1;SDS_P2;PMS_P1;PMS_P2;Temp;Humidity;BMP_temperature;BMP_pressure;BME280_temperature;BME280_humidity;BME280_pressure;Samples;Min_cycle;Max_cycle;Signal;HPM_P1;HPM_P2
2021/03/03 00:00:58;;;;;;;19.48;10.90;;;;;;;3.31;71.70;101080.80;1676134;85;21192;-52
2021/03/03 00:04:05;;;;;;;17.32;10.10;;;;;;;3.29;71.76;101088.16;1676607;82;21231;-53
2021/03/03 00:07:11;;;;;;;17.60;10.30;;;;;;;3.24;71.79;101089.45;1676320;85;21254;-55
2021/03/03 00:10:18;;;;;;;20.12;10.95;;;;;;;3.18;71.88;101104.30;1676096;85;21200;-53
2021/03/03 00:13:24;;;;;;;20.32;10.38;;;;;;;3.17;71.97;101099.89;1676230;85;21254;-53
2021/03/03 00:16:31;;;;;;;17.05;9.58;;;;;;;3.21;72.07;101105.44;1676052;85;21196;-52
2021/03/03 00:19:36;;;;;;;18.30;9.45;;;;;;;3.25;71.98;101101.51;1675991;85;21787;-52
2021/03/03 00:22:41;;;;;;;15.35;9.35;;;;;;;3.27;71.91;101102.78;1634031;86;21285;-55
2021/03/03 00:25:48;;;;;;;14.10;8.50;;;;;;;3.27;71.83;101106.33;1684076;85;21319;-55
2021/03/03 00:28:55;;;;;;;13.55;8.15;;;;;;;3.28;71.63;101112.14;1648936;86;21265;-52
2021/03/03 00:32:00;;;;;;;12.15;7.45;;;;;;;3.33;71.11;101121.27;1640910;85;21258;-52
2021/03/03 00:35:06;;;;;;;15.50;8.38;;;;;;;3.37;70.88;101111.45;1645460;87;21254;-53
2021/03/03 00:38:12;;;;;;;14.15;8.30;;;;;;;3.48;70.73;101110.17;1678399;85;21247;-53
2021/03/03 00:41:18;;;;;;;16.50;9.25;;;;;;;3.59;70.48;101108.89;1678780;84;21299;-53
2021/03/03 00:44:25;;;;;;;12.73;7.60;;;;;;;3.70;70.21;101113.02;1676224;85;21176;-53
2021/03/03 00:47:31;;;;;;;12.88;8.10;;;;;;;3.77;69.92;101117.48;1676308;85;21264;-53
2021/03/03 00:50:37;;;;;;;15.30;7.78;;;;;;;3.81;69.66;101124.38;1676401;84;21235;-53
2021/03/03 00:53:43;;;;;;;13.38;8.28;;;;;;;3.83;69.60;101120.60;1645978;87;21267;-54
2021/03/03 00:56:49;;;;;;;16.07;9.00;;;;;;;3.86;69.54;101124.44;1676129;85;21200;-52
2021/03/03 00:59:56;;;;;;;15.58;8.33;;;;;;;3.87;69.52;101128.86;1648579;86;21218;-53
2021/03/03 01:03:03;;;;;;;14.87;8.48;;;;;;;3.86;69.53;101127.14;1676615;84;21352;-54
2021/03/03 01:06:09;;;;;;;14.23;9.08;;;;;;;3.86;69.67;101124.44;1664989;83;21446;-52
2021/03/03 01:09:16;;;;;;;17.60;9.10;;;;;;;3.86;69.73;101131.68;1647767;86;21290;-54
2021/03/03 01:12:22;;;;;;;17.30;9.08;;;;;;;3.85;69.84;101126.78;1683144;85;21270;-54
2021/03/03 01:15:30;;;;;;;14.95;8.30;;;;;;;3.87;69.93;101128.86;1648116;86;21215;-52
2021/03/03 01:18:38;;;;;;;16.75;9.23;;;;;;;3.89;69.99;101135.52;1683187;85;21254;-53
2021/03/03 01:21:44;;;;;;;18.85;9.68;;;;;;;3.89;70.08;101140.92;1629359;86;21384;-53
2021/03/03 01:24:51;;;;;;;12.55;8.00;;;;;;;3.85;70.10;101130.84;1675136;85;21417;-53
2021/03/03 01:27:57;;;;;;;14.68;8.40;;;;;;;3.80;70.16;101142.50;1686064;85;21775;-53
2021/03/03 01:31:04;;;;;;;15.32;8.83;;;;;;;3.73;70.39;101147.11;1676048;85;21215;-53
2021/03/03 01:34:09;;;;;;;17.10;8.40;;;;;;;3.69;70.59;101155.09;1660131;85;21776;-53
2021/03/03 01:37:16;;;;;;;14.23;7.90;;;;;;;3.64;70.77;101156.80;1655109;86;21400;-52
2021/03/03 01:40:24;;;;;;;14.87;8.10;;;;;;;3.55;70.90;101151.19;1666794;86;21408;-53
2021/03/03 01:43:29;;;;;;;15.98;9.28;;;;;;;3.46;71.17;101150.48;1674463;84;21812;-53
2021/03/03 01:46:35;;;;;;;14.45;8.20;;;;;;;3.35;71.38;101151.28;1648693;86;21965;-53
2021/03/03 01:49:41;;;;;;;14.30;8.88;;;;;;;3.29;71.60;101153.09;1676304;85;21227;-53
2021/03/03 01:52:48;;;;;;;16.95;9.00;;;;;;;3.23;71.80;101156.72;1648337;86;21257;-53
2021/03/03 01:55:55;;;;;;;15.68;9.08;;;;;;;3.20;71.97;101163.23;1675883;85;21985;-54
2021/03/03 01:59:01;;;;;;;12.20;7.90;;;;;;;3.16;72.12;101165.76;1646457;86;21376;-53
2021/03/03 02:02:08;;;;;;;15.32;8.23;;;;;;;3.17;72.29;101162.10;1676181;85;21732;-53
2021/03/03 02:05:16;;;;;;;11.73;7.15;;;;;;;3.19;72.33;101166.89;1645920;86;21246;-55
2021/03/03 02:08:27;;;;;;;15.35;8.03;;;;;;;3.20;72.28;101173.17;1679970;81;21661;-54
2021/03/03 02:12:02;;;;;;;11.20;7.53;;;;;;;3.22;72.31;101172.59;1696772;84;21236;-54
2021/03/03 02:15:09;;;;;;;13.78;8.63;;;;;;;3.25;72.26;101177.27;1645429;87;21247;-52
2021/03/03 02:18:15;;;;;;;11.97;7.05;;;;;;;3.23;72.17;101174.30;1700658;84;21351;-53
2021/03/03 02:21:49;;;;;;;13.58;7.40;;;;;;;3.21;72.18;101173.06;1645226;87;21418;-53
2021/03/03 02:24:58;;;;;;;15.03;8.15;;;;;;;3.18;72.13;101180.52;1701131;84;21272;-53
2021/03/03 02:28:13;;;;;;;11.57;6.95;;;;;;;3.08;72.27;101182.55;1645369;86;21899;-53
2021/03/03 02:31:21;;;;;;;11.20;7.30;;;;;;;3.02;72.37;101184.81;1651859;87;21681;-53
2021/03/03 02:34:27;;;;;;;14.10;7.87;;;;;;;2.92;72.51;101188.66;1679324;85;21298;-54
2021/03/03 02:37:33;;;;;;;12.65;8.03;;;;;;;2.85;72.69;101188.69;1680601;85;21348;-54
2021/03/03 02:40:40;;;;;;;12.88;7.17;;;;;;;2.77;72.89;101203.73;1678753;85;21413;-54
2021/03/03 02:43:45;;;;;;;14.85;7.50;;;;;;;2.69;73.07;101206.10;1700273;84;21248;-54
2021/03/03 02:46:52;;;;;;;13.05;7.45;;;;;;;2.63;73.31;101212.78;1645270;87;21430;-52
2021/03/03 02:49:59;;;;;;;12.47;7.80;;;;;;;2.59;73.52;101218.50;1699925;84;21216;-54
2021/03/03 02:53:05;;;;;;;11.33;7.40;;;;;;;2.54;73.71;101219.30;1645550;86;21259;-54
2021/03/03 02:56:10;;;;;;;15.18;8.85;;;;;;;2.50;73.94;101220.49;1699300;84;21201;-52
2021/03/03 02:59:23;;;;;;;14.30;8.30;;;;;;;2.49;74.13;101229.58;1700741;84;21216;-54
2021/03/03 03:02:31;;;;;;;15.43;7.50;;;;;;;2.47;74.28;101219.35;1645576;86;21820;-54
2021/03/03 03:05:58;;;;;;;11.55;7.67;;;;;;;2.42;74.46;101229.13;1700772;84;21221;-54
2021/03/03 03:09:23;;;;;;;15.72;8.05;;;;;;;2.37;74.62;101231.73;1656332;80;21270;-53
2021/03/03 03:12:46;;;;;;;18.20;7.67;;;;;;;2.35;74.85;101243.13;1674797;85;21284;-53
2021/03/03 03:16:10;;;;;;;14.15;8.70;;;;;;;2.31;75.05;101247.02;1674118;85;21209;-54
2021/03/03 03:19:19;;;;;;;12.68;7.67;;;;;;;2.27;75.20;101242.30;1674283;84;21387;-54
2021/03/03 03:22:28;;;;;;;17.45;9.45;;;;;;;2.26;75.37;101241.05;1674619;85;21563;-53
2021/03/03 03:25:33;;;;;;;16.10;8.75;;;;;;;2.23;75.51;101242.61;1674257;85;21616;-54
2021/03/03 03:28:39;;;;;;;15.38;8.98;;;;;;;2.21;75.67;101242.72;1674341;85;21255;-54
2021/03/03 03:31:44;;;;;;;13.35;8.88;;;;;;;2.21;75.77;101249.47;1657763;85;21236;-54
2021/03/03 03:34:50;;;;;;;12.58;7.62;;;;;;;2.20;75.84;101255.84;1674160;85;21248;-55
2021/03/03 03:37:55;;;;;;;13.28;8.30;;;;;;;2.18;75.94;101269.05;1674303;85;21501;-53
2021/03/03 03:41:01;;;;;;;15.03;8.40;;;;;;;2.15;76.10;101266.55;1674024;85;21407;-55
2021/03/03 03:44:07;;;;;;;14.65;7.90;;;;;;;2.15;76.19;101267.44;1675035;84;21371;-54
2021/03/03 03:47:13;;;;;;;12.78;6.92;;;;;;;2.12;76.29;101275.73;1674129;85;21434;-55
2021/03/03 03:50:20;;;;;;;14.60;7.72;;;;;;;2.13;76.38;101275.23;1674165;85;21276;-54
2021/03/03 03:53:25;;;;;;;12.33;7.05;;;;;;;2.14;76.45;101290.48;1674588;84;21413;-54
2021/03/03 03:56:30;;;;;;;13.10;7.20;;;;;;;2.14;76.51;101282.39;1674062;85;21300;-54
2021/03/03 03:59:36;;;;;;;13.08;7.33;;;;;;;2.15;76.56;101282.76;1674044;85;21312;-53
2021/03/03 04:02:41;;;;;;;12.25;7.00;;;;;;;2.14;76.54;101280.53;1675518;84;21442;-52
2021/03/03 04:05:47;;;;;;;14.00;7.80;;;;;;;2.15;76.55;101285.45;1674217;85;21355;-52
2021/03/03 04:08:55;;;;;;;13.60;8.00;;;;;;;2.15;76.52;101280.06;1677530;80;21461;-52
2021/03/03 04:12:01;;;;;;;13.28;7.62;;;;;;;2.16;76.48;101289.88;1671138;85;21224;-53
2021/03/03 04:15:07;;;;;;;15.38;8.20;;;;;;;2.14;76.43;101299.44;1671061;85;21261;-52
2021/03/03 04:18:13;;;;;;;12.05;6.72;;;;;;;2.15;76.46;101309.77;1670886;85;21256;-53
2021/03/03 04:21:19;;;;;;;9.13;6.37;;;;;;;2.18;76.39;101309.56;1658622;86;21386;-52
2021/03/03 04:24:26;;;;;;;13.22;6.83;;;;;;;2.18;76.31;101306.86;1643670;86;21602;-51
2021/03/03 04:27:31;;;;;;;11.60;6.42;;;;;;;2.17;76.25;101314.09;1643190;87;21242;-52
2021/03/03 04:30:35;;;;;;;11.80;6.65;;;;;;;2.16;76.19;101314.19;1642848;87;21373;-54
2021/03/03 04:33:42;;;;;;;14.35;6.95;;;;;;;2.16;76.12;101316.89;1642374;87;21406;-54
2021/03/03 04:36:48;;;;;;;10.60;6.35;;;;;;;2.13;76.11;101319.80;1650352;86;21316;-53
2021/03/03 04:39:54;;;;;;;9.65;5.97;;;;;;;2.11;76.12;101316.34;1674089;85;21213;-53
2021/03/03 04:43:00;;;;;;;12.18;7.08;;;;;;;2.11;76.11;101323.95;1671118;86;21246;-53
2021/03/03 04:46:06;;;;;;;10.55;6.10;;;;;;;2.12;76.07;101328.87;1671345;86;21253;-54
2021/03/03 04:49:11;;;;;;;9.70;6.33;;;;;;;2.13;75.99;101331.47;1671232;86;21304;-53
2021/03/03 04:52:18;;;;;;;12.50;6.50;;;;;;;2.14;75.91;101328.30;1671166;86;21244;-53
2021/03/03 04:55:26;;;;;;;9.95;5.65;;;;;;;2.15;75.86;101340.35;1677246;84;21224;-53
2021/03/03 04:58:31;;;;;;;8.78;5.62;;;;;;;2.15;75.82;101341.70;1698825;83;21233;-53
2021/03/03 05:01:39;;;;;;;8.88;5.42;;;;;;;2.20;75.73;101346.80;1698909;84;21204;-53
2021/03/03 05:04:47;;;;;;;11.22;6.72;;;;;;;2.22;75.59;101359.73;1698801;84;21236;-52
2021/03/03 05:07:53;;;;;;;11.30;6.03;;;;;;;2.24;75.56;101367.23;1671028;84;21544;-52
2021/03/03 05:10:59;;;;;;;11.95;5.62;;;;;;;2.28;75.49;101370.13;1691943;80;21390;-53
2021/03/03 05:14:06;;;;;;;9.80;5.70;;;;;;;2.29;75.40;101378.61;1672287;85;21399;-53
2021/03/03 05:17:11;;;;;;;9.83;5.20;;;;;;;2.32;75.26;101368.95;1684319;84;21895;-54
2021/03/03 05:20:21;;;;;;;9.45;5.42;;;;;;;2.36;75.11;101367.80;1684307;84;21437;-53
2021/03/03 05:23:37;;;;;;;9.85;5.12;;;;;;;2.41;75.05;101377.84;1683586;84;21262;-52
2021/03/03 05:26:42;;;;;;;10.48;5.70;;;;;;;2.47;74.84;101385.53;1684019;84;21393;-53
2021/03/03 05:29:47;;;;;;;9.05;5.10;;;;;;;2.50;74.52;101388.03;1684644;84;21393;-53
2021/03/03 05:32:52;;;;;;;8.53;4.67;;;;;;;2.52;74.32;101393.70;1626612;87;21521;-54
2021/03/03 05:35:58;;;;;;;8.45;5.12;;;;;;;2.54;74.18;101398.53;1657092;86;21215;-53
2021/03/03 05:39:04;;;;;;;8.65;5.30;;;;;;;2.54;74.03;101401.71;1657841;84;21490;-54
2021/03/03 05:42:09;;;;;;;7.58;4.35;;;;;;;2.56;73.97;101390.33;1658190;85;21370;-54
2021/03/03 05:45:15;;;;;;;9.35;4.83;;;;;;;2.62;73.88;101398.02;1637769;87;21246;-54
2021/03/03 05:48:31;;;;;;;8.43;4.97;;;;;;;2.66;73.70;101405.83;1677687;83;21235;-54
2021/03/03 05:51:39;;;;;;;8.70;4.83;;;;;;;2.72;73.54;101408.15;1674306;84;21207;-54
2021/03/03 05:54:44;;;;;;;9.70;4.33;;;;;;;2.76;73.34;101412.38;1646855;87;21246;-54
2021/03/03 05:57:49;;;;;;;7.08;4.00;;;;;;;2.84;73.17;101411.86;1689783;83;21199;-54
2021/03/03 06:00:59;;;;;;;8.33;4.08;;;;;;;2.90;72.92;101429.05;1701205;83;21753;-54
2021/03/03 06:04:06;;;;;;;7.95;4.78;;;;;;;2.95;72.55;101414.71;1686973;84;21475;-55
2021/03/03 06:07:11;;;;;;;9.28;3.92;;;;;;;2.99;72.52;101417.14;1640252;86;21250;-54
2021/03/03 06:10:18;;;;;;;9.85;5.15;;;;;;;3.08;72.33;101415.16;1672048;85;21788;-54
2021/03/03 06:13:25;;;;;;;11.18;5.20;;;;;;;3.18;72.12;101418.58;1637621;83;21227;-53
2021/03/03 06:16:31;;;;;;;10.82;4.45;;;;;;;3.22;71.59;101419.63;1645183;85;21260;-54
2021/03/03 06:19:37;;;;;;;8.28;4.47;;;;;;;3.24;71.32;101414.98;1645468;85;21255;-54
2021/03/03 06:22:43;;;;;;;7.83;4.53;;;;;;;3.22;71.03;101424.19;1615475;86;21277;-54
2021/03/03 06:25:49;;;;;;;8.75;4.60;;;;;;;3.24;71.13;101431.22;1615651;88;21826;-54
2021/03/03 06:28:57;;;;;;;8.45;3.75;;;;;;;3.31;71.15;101442.49;1661607;83;21327;-52
2021/03/03 06:32:06;;;;;;;7.33;4.10;;;;;;;3.39;70.91;101444.20;1647999;85;21807;-54
2021/03/03 06:35:13;;;;;;;8.13;4.28;;;;;;;3.46;70.60;101440.95;1711380;83;21227;-54
2021/03/03 06:38:22;;;;;;;7.80;4.42;;;;;;;3.52;70.33;101453.22;1703861;83;21424;-56
2021/03/03 06:41:30;;;;;;;9.60;4.40;;;;;;;3.57;70.10;101459.19;1705108;83;21204;-55
2021/03/03 06:44:57;;;;;;;7.72;4.42;;;;;;;3.60;69.73;101446.28;1701682;83;21370;-55
2021/03/03 06:48:03;;;;;;;8.70;3.95;;;;;;;3.65;69.73;101445.48;1664231;85;21324;-55
2021/03/03 06:51:11;;;;;;;10.68;3.80;;;;;;;3.73;69.55;101445.83;1635828;86;21270;-55
2021/03/03 06:54:20;;;;;;;7.30;4.03;;;;;;;3.79;69.11;101448.09;1657936;85;21204;-55
2021/03/03 06:57:26;;;;;;;6.90;3.90;;;;;;;3.78;68.81;101440.96;1658025;86;22013;-54
2021/03/03 07:00:50;;;;;;;7.53;4.45;;;;;;;3.82;68.89;101451.10;1612718;86;21263;-55
2021/03/03 07:03:56;;;;;;;6.45;3.42;;;;;;;3.91;68.92;101452.67;1644869;87;21229;-54
2021/03/03 07:07:06;;;;;;;7.85;3.70;;;;;;;4.01;68.34;101437.49;1644390;87;21325;-55
2021/03/03 07:10:13;;;;;;;6.08;3.08;;;;;;;4.02;67.90;101439.25;1682471;83;21386;-54
2021/03/03 07:13:18;;;;;;;5.72;3.30;;;;;;;4.03;67.69;101465.34;1660192;82;21311;-55
2021/03/03 07:16:24;;;;;;;4.72;2.70;;;;;;;3.99;66.90;101450.30;1682911;84;21377;-56
2021/03/03 07:19:30;;;;;;;7.95;3.35;;;;;;;3.94;66.78;101457.88;1670630;85;21237;-55
2021/03/03 07:22:47;;;;;;;5.50;3.00;;;;;;;3.91;66.62;101461.28;1657145;85;21254;-54
2021/03/03 07:25:53;;;;;;;6.30;3.37;;;;;;;3.87;66.79;101455.71;1620520;88;21271;-55
2021/03/03 07:29:00;;;;;;;6.12;3.17;;;;;;;3.86;66.77;101460.25;1668579;85;21234;-52
2021/03/03 07:32:05;;;;;;;5.25;2.98;;;;;;;3.87;66.83;101464.69;1679925;84;21332;-54
2021/03/03 07:35:13;;;;;;;6.85;3.25;;;;;;;3.87;66.61;101455.20;1675194;85;21228;-55
2021/03/03 07:38:18;;;;;;;6.03;2.75;;;;;;;3.89;66.60;101474.94;1648058;85;21346;-55
2021/03/03 07:41:25;;;;;;;5.50;2.95;;;;;;;3.93;66.80;101460.70;1685496;83;21228;-54
2021/03/03 07:44:31;;;;;;;6.28;2.58;;;;;;;3.99;66.86;101463.84;1684511;85;21206;-54
2021/03/03 07:47:40;;;;;;;6.78;3.05;;;;;;;4.08;66.56;101473.14;1679280;85;21390;-54
2021/03/03 07:50:46;;;;;;;8.08;3.55;;;;;;;4.13;66.36;101465.56;1645302;87;21267;-54
2021/03/03 07:53:52;;;;;;;5.55;3.00;;;;;;;4.15;65.67;101473.98;1683925;85;21275;-54
2021/03/03 07:56:57;;;;;;;6.20;2.47;;;;;;;4.15;65.79;101473.11;1674207;85;21346;-55
2021/03/03 08:00:02;;;;;;;8.38;7.45;;;;;;;4.15;65.74;101479.41;1682731;85;21429;-53
2021/03/03 08:03:08;;;;;;;6.05;2.60;;;;;;;4.18;65.25;101501.34;1649992;85;21302;-54
2021/03/03 08:06:36;;;;;;;7.00;2.90;;;;;;;4.21;65.24;101483.50;1681390;85;21366;-55
2021/03/03 08:09:42;;;;;;;5.25;2.60;;;;;;;4.21;65.38;101484.38;1686002;84;21609;-54
2021/03/03 08:13:12;;;;;;;4.60;2.33;;;;;;;4.33;65.25;101487.56;1646241;86;21318;-54
2021/03/03 08:16:18;;;;;;;4.40;2.27;;;;;;;4.41;64.84;101505.50;1640654;86;21431;-53
2021/03/03 08:19:24;;;;;;;6.17;2.70;;;;;;;4.46;64.71;101487.55;1652252;86;21323;-54
2021/03/03 08:22:58;;;;;;;6.25;2.80;;;;;;;4.52;64.64;101487.98;1649083;85;21885;-54
2021/03/03 08:26:04;;;;;;;7.70;2.98;;;;;;;4.60;64.41;101506.40;1626632;88;21258;-54
2021/03/03 08:29:26;;;;;;;7.20;3.08;;;;;;;4.65;63.78;101519.66;1653378;86;21533;-54
2021/03/03 08:32:34;;;;;;;7.60;2.75;;;;;;;4.67;63.74;101494.63;1649680;85;21475;-55
2021/03/03 08:35:47;;;;;;;6.08;2.58;;;;;;;4.70;64.16;101512.03;1652642;86;21366;-54
2021/03/03 08:39:06;;;;;;;5.58;2.20;;;;;;;4.80;64.28;101515.81;1621272;88;21669;-54
2021/03/03 08:42:14;;;;;;;4.30;2.30;;;;;;;4.85;63.44;101511.80;1642929;85;21230;-54
2021/03/03 08:45:21;;;;;;;4.35;2.50;;;;;;;4.88;63.19;101518.84;1645384;86;21266;-55
2021/03/03 08:48:26;;;;;;;4.90;2.55;;;;;;;4.89;63.18;101516.02;1652291;85;21396;-53
2021/03/03 08:51:35;;;;;;;4.72;2.10;;;;;;;4.94;63.27;101516.55;1650262;87;21429;-54
2021/03/03 08:54:52;;;;;;;3.45;2.05;;;;;;;5.05;62.66;101537.45;1652831;86;21380;-53
2021/03/03 08:58:00;;;;;;;5.60;2.27;;;;;;;5.11;62.02;101532.93;1647403;86;21262;-54
2021/03/03 09:01:06;;;;;;;4.67;1.80;;;;;;;5.21;62.06;101531.28;1638416;87;21263;-54
2021/03/03 09:04:13;;;;;;;3.62;2.10;;;;;;;5.33;60.83;101542.57;1645211;85;21789;-54
2021/03/03 09:07:36;;;;;;;4.50;2.20;;;;;;;5.35;59.57;101540.62;1659441;84;21581;-54
2021/03/03 09:10:42;;;;;;;3.83;1.95;;;;;;;5.36;59.42;101542.37;1652576;85;21224;-54
2021/03/03 09:13:52;;;;;;;6.35;2.02;;;;;;;5.42;60.28;101576.70;1657691;85;21612;-53
2021/03/03 09:17:08;;;;;;;3.50;1.87;;;;;;;5.46;58.52;101548.83;1692669;84;21224;-53
2021/03/03 09:20:23;;;;;;;3.77;1.92;;;;;;;5.51;58.52;101570.59;1651813;85;21985;-52
2021/03/03 09:23:31;;;;;;;3.37;2.02;;;;;;;5.53;57.63;101556.42;1632833;86;21207;-53
2021/03/03 09:26:36;;;;;;;3.25;1.75;;;;;;;5.53;57.68;101559.63;1650531;86;21226;-53
2021/03/03 09:29:44;;;;;;;3.35;1.37;;;;;;;5.59;58.06;101560.03;1651417;86;21211;-53
2021/03/03 09:32:50;;;;;;;2.60;1.80;;;;;;;5.65;57.01;101561.40;1649357;86;21244;-52
2021/03/03 09:35:54;;;;;;;3.12;1.60;;;;;;;5.65;57.00;101566.35;1644711;86;21282;-55
2021/03/03 09:39:06;;;;;;;4.47;1.80;;;;;;;5.70;56.16;101575.03;1611913;87;21337;-55
2021/03/03 09:42:17;;;;;;;2.17;1.40;;;;;;;5.71;56.40;101553.66;1640240;85;21313;-54
2021/03/03 09:45:30;;;;;;;5.08;1.70;;;;;;;5.84;56.79;101565.84;1638422;85;21231;-55
2021/03/03 09:48:39;;;;;;;4.33;1.80;;;;;;;5.89;54.72;101567.73;1640965;87;21253;-54
2021/03/03 09:51:55;;;;;;;4.47;1.90;;;;;;;5.84;55.34;101572.64;1682348;82;21609;-54
2021/03/03 09:55:00;;;;;;;2.92;1.60;;;;;;;5.84;55.18;101574.00;1678820;84;21212;-54
2021/03/03 09:58:06;;;;;;;2.98;1.55;;;;;;;5.83;54.20;101573.16;1683989;83;21769;-53
2021/03/03 10:01:12;;;;;;;3.00;1.60;;;;;;;5.86;54.24;101591.06;1636671;86;21263;-53
2021/03/03 10:04:22;;;;;;;4.03;1.75;;;;;;;5.86;54.61;101574.28;1630577;87;21859;-53
2021/03/03 10:07:34;;;;;;;3.50;1.60;;;;;;;5.93;53.82;101562.45;1688899;83;21285;-54
2021/03/03 10:10:48;;;;;;;3.00;1.87;;;;;;;5.97;52.96;101566.17;1650146;86;21266;-53
2021/03/03 10:13:54;;;;;;;3.58;1.37;;;;;;;6.02;52.33;101585.68;1651752;85;21244;-53
2021/03/03 10:17:10;;;;;;;2.72;1.25;;;;;;;5.98;52.18;101572.45;1676888;83;21829;-53
2021/03/03 10:20:36;;;;;;;4.53;1.40;;;;;;;5.97;51.53;101555.78;1634068;85;21760;-56
2021/03/03 10:23:44;;;;;;;3.45;1.90;;;;;;;5.95;51.40;101582.20;1612744;87;21807;-54
2021/03/03 10:26:55;;;;;;;2.62;1.47;;;;;;;6.03;51.88;101562.09;1627534;85;21833;-53
2021/03/03 10:30:01;;;;;;;3.37;1.80;;;;;;;6.10;51.80;101558.78;1682679;84;21189;-53
2021/03/03 10:33:08;;;;;;;6.83;1.72;;;;;;;6.17;51.51;101561.89;1688496;82;21909;-53
2021/03/03 10:36:23;;;;;;;6.45;3.00;;;;;;;6.19;50.63;101565.84;1682400;84;21811;-53
2021/03/03 10:39:33;;;;;;;3.90;1.80;;;;;;;6.28;51.12;101570.59;1684088;84;21200;-52
2021/03/03 10:42:39;;;;;;;2.00;1.40;;;;;;;6.32;49.68;101551.67;1687938;83;21760;-54
2021/03/03 10:45:46;;;;;;;3.47;1.47;;;;;;;6.33;49.90;101565.67;1662954;85;21197;-53
2021/03/03 10:48:54;;;;;;;3.58;1.50;;;;;;;6.41;49.78;101559.98;1670620;83;21201;-52
2021/03/03 10:52:02;;;;;;;2.47;1.20;;;;;;;6.41;48.82;101554.54;1661112;85;21321;-52
2021/03/03 10:55:11;;;;;;;3.67;1.75;;;;;;;6.41;49.11;101552.30;1681477;84;21580;-55
2021/03/03 10:58:21;;;;;;;2.77;1.50;;;;;;;6.39;49.03;101554.30;1688846;83;21340;-53
2021/03/03 11:01:29;;;;;;;2.37;1.30;;;;;;;6.45;49.32;101572.37;1675690;83;21801;-53
2021/03/03 11:04:53;;;;;;;2.95;1.80;;;;;;;6.46;48.58;101556.89;1652503;84;21235;-52
2021/03/03 11:08:02;;;;;;;2.27;1.35;;;;;;;6.46;47.67;101559.13;1637530;85;21404;-51
2021/03/03 11:11:14;;;;;;;1.92;1.30;;;;;;;6.41;47.47;101549.10;1683334;84;21192;-53
2021/03/03 11:14:19;;;;;;;2.52;1.40;;;;;;;6.45;47.57;101558.77;1641540;87;21887;-53
2021/03/03 11:17:25;;;;;;;1.80;1.30;;;;;;;6.59;47.37;101562.62;1646744;82;21312;-53
2021/03/03 11:20:31;;;;;;;3.35;1.70;;;;;;;6.71;47.68;101568.91;1624210;86;21201;-53
2021/03/03 11:23:37;;;;;;;5.05;1.70;;;;;;;6.84;47.60;101574.64;1639748;85;21315;-54
2021/03/03 11:26:46;;;;;;;2.52;1.30;;;;;;;6.94;46.74;101564.75;1635503;86;21259;-53
2021/03/03 11:29:51;;;;;;;3.72;1.70;;;;;;;6.97;46.87;101554.09;1670560;85;21219;-53
2021/03/03 11:32:57;;;;;;;2.95;1.37;;;;;;;7.08;47.37;101557.69;1677640;84;21825;-54
2021/03/03 11:36:03;;;;;;;3.75;1.27;;;;;;;7.23;47.26;101568.67;1680058;83;21212;-56
2021/03/03 11:39:15;;;;;;;2.65;1.40;;;;;;;7.32;46.10;101563.85;1664091;84;21351;-56
2021/03/03 11:42:28;;;;;;;3.60;1.30;;;;;;;7.37;46.02;101563.47;1678604;84;21313;-55
2021/03/03 11:45:39;;;;;;;2.37;1.27;;;;;;;7.46;46.29;101567.66;1684232;83;21410;-55
2021/03/03 11:48:51;;;;;;;3.27;1.52;;;;;;;7.56;46.22;101569.13;1676537;84;21920;-56
2021/03/03 11:52:01;;;;;;;4.83;2.33;;;;;;;7.67;45.36;101570.94;1677815;84;21792;-56
2021/03/03 11:55:06;;;;;;;2.62;1.57;;;;;;;7.72;43.89;101569.58;1673100;84;21267;-55
2021/03/03 11:58:11;;;;;;;2.33;1.50;;;;;;;7.72;44.30;101570.94;1678520;84;21232;-55
2021/03/03 12:01:17;;;;;;;2.80;1.30;;;;;;;7.82;44.12;101558.77;1648697;84;21287;-56
2021/03/03 12:04:23;;;;;;;5.20;1.60;;;;;;;7.89;44.29;101565.41;1686059;84;21814;-56
2021/03/03 12:07:29;;;;;;;3.65;2.27;;;;;;;7.97;44.04;101557.45;1685822;83;21345;-56
2021/03/03 12:10:34;;;;;;;2.55;1.30;;;;;;;8.09;44.27;101564.57;1690292;84;21276;-55
2021/03/03 12:13:41;;;;;;;1.90;1.00;;;;;;;8.24;44.10;101563.30;1683988;82;21336;-57
2021/03/03 12:16:46;;;;;;;2.22;1.32;;;;;;;8.36;43.32;101569.92;1677126;84;21224;-56
2021/03/03 12:19:52;;;;;;;2.67;1.45;;;;;;;8.40;43.04;101553.67;1676299;82;21808;-58
2021/03/03 12:22:57;;;;;;;2.55;1.10;;;;;;;8.45;41.49;101566.91;1650526;84;21280;-56
2021/03/03 12:26:03;;;;;;;2.15;1.25;;;;;;;8.46;41.50;101563.17;1652507;86;21218;-57
2021/03/03 12:29:09;;;;;;;2.70;1.35;;;;;;;8.43;41.20;101552.03;1650704;86;21707;-55
2021/03/03 12:32:15;;;;;;;4.22;2.20;;;;;;;8.47;42.01;101558.06;1650365;84;21229;-55
2021/03/03 12:35:22;;;;;;;4.17;1.60;;;;;;;8.58;41.79;101559.36;1656260;85;21217;-55
2021/03/03 12:38:27;;;;;;;6.28;2.58;;;;;;;8.58;42.31;101553.41;1662299;85;21244;-57
2021/03/03 12:41:32;;;;;;;4.70;1.85;;;;;;;8.65;42.94;101560.08;1661066;85;21193;-56
2021/03/03 12:44:38;;;;;;;4.03;1.45;;;;;;;8.73;41.84;101541.64;1663971;85;21235;-56
2021/03/03 12:47:44;;;;;;;2.75;1.52;;;;;;;8.75;41.22;101545.11;1664358;84;21276;-58
2021/03/03 12:50:49;;;;;;;2.15;1.20;;;;;;;8.79;41.52;101550.16;1638117;86;22155;-57
2021/03/03 12:53:54;;;;;;;3.98;2.17;;;;;;;8.83;41.06;101550.76;1665937;83;21724;-57
2021/03/03 12:57:02;;;;;;;3.35;1.80;;;;;;;8.85;41.58;101556.92;1661177;84;21288;-56
2021/03/03 13:00:06;;;;;;;3.37;2.02;;;;;;;8.88;41.83;101545.73;1653209;86;21369;-57
2021/03/03 13:03:13;;;;;;;4.03;2.00;;;;;;;8.93;42.12;101548.42;1620293;88;21207;-57
2021/03/03 13:06:19;;;;;;;4.10;1.50;;;;;;;9.12;42.05;101556.34;1665735;85;21578;-57
2021/03/03 13:09:26;;;;;;;3.47;2.05;;;;;;;9.25;40.86;101555.09;1663605;85;21802;-54
2021/03/03 13:12:32;;;;;;;3.87;1.87;;;;;;;9.35;39.93;101561.46;1664494;84;21216;-56
2021/03/03 13:15:37;;;;;;;3.52;1.77;;;;;;;9.28;40.75;101554.81;1673777;85;21328;-56
2021/03/03 13:18:44;;;;;;;3.08;1.72;;;;;;;9.27;42.31;101557.68;1663905;83;21237;-56
2021/03/03 13:21:50;;;;;;;5.67;2.37;;;;;;;9.13;42.76;101552.11;1682794;82;21231;-58
2021/03/03 13:24:55;;;;;;;3.45;1.70;;;;;;;9.13;43.34;101567.14;1676381;84;21308;-56
2021/03/03 13:28:01;;;;;;;3.55;1.62;;;;;;;9.20;43.12;101557.89;1669258;84;21239;-58
2021/03/03 13:31:08;;;;;;;2.95;1.57;;;;;;;9.24;42.87;101560.70;1698489;83;21240;-56
2021/03/03 13:34:18;;;;;;;3.42;1.65;;;;;;;9.16;43.15;101561.39;1695384;83;21267;-57
2021/03/03 13:37:23;;;;;;;1.90;1.10;;;;;;;9.16;43.39;101558.66;1716055;82;21565;-58
2021/03/03 13:40:32;;;;;;;3.10;1.40;;;;;;;9.20;42.78;101568.81;1721057;82;21219;-57
2021/03/03 13:43:41;;;;;;;2.20;1.25;;;;;;;9.09;42.65;101559.71;1730427;81;21405;-56
2021/03/03 13:46:47;;;;;;;6.12;1.60;;;;;;;9.01;42.29;101564.12;1715370;82;21300;-55
2021/03/03 13:49:58;;;;;;;2.90;1.55;;;;;;;8.90;41.74;101573.28;1715011;83;21208;-56
2021/03/03 13:53:03;;;;;;;4.95;1.30;;;;;;;8.80;41.97;101561.95;1743220;80;21348;-57
2021/03/03 13:56:08;;;;;;;2.22;1.27;;;;;;;8.73;42.02;101562.99;1724840;82;21868;-54
2021/03/03 13:59:14;;;;;;;2.58;1.50;;;;;;;8.72;42.21;101563.13;1733800;82;21354;-56
2021/03/03 14:02:22;;;;;;;3.25;1.80;;;;;;;8.74;42.13;101561.11;1728736;81;21911;-56
2021/03/03 14:05:29;;;;;;;1.55;1.32;;;;;;;8.70;41.42;101568.73;1724786;82;21207;-56
2021/03/03 14:08:38;;;;;;;2.00;1.30;;;;;;;8.63;41.25;101563.91;1721544;81;21283;-57
2021/03/03 14:11:45;;;;;;;2.05;1.27;;;;;;;8.48;41.58;101568.00;1709923;82;21847;-56
2021/03/03 14:14:52;;;;;;;2.00;1.20;;;;;;;8.35;41.27;101562.75;1716473;83;21200;-56
2021/03/03 14:18:00;;;;;;;5.65;1.80;;;;;;;8.27;41.25;101557.58;1724957;80;21299;-56
2021/03/03 14:21:10;;;;;;;4.85;1.80;;;;;;;8.15;41.78;101561.34;1711338;83;21398;-57
2021/03/03 14:24:19;;;;;;;7.42;2.85;;;;;;;8.13;42.20;101557.88;1718413;82;21204;-58
2021/03/03 14:27:24;;;;;;;4.17;2.15;;;;;;;8.10;42.15;101563.59;1719486;82;21319;-56
2021/03/03 14:30:31;;;;;;;4.25;1.85;;;;;;;8.07;41.87;101558.41;1707867;82;21419;-56
2021/03/03 14:33:36;;;;;;;3.20;2.05;;;;;;;8.03;41.65;101558.28;1729017;81;21218;-56
2021/03/03 14:36:43;;;;;;;7.60;3.50;;;;;;;8.02;41.76;101551.98;1743183;80;21471;-56
2021/03/03 14:39:50;;;;;;;3.20;1.80;;;;;;;8.03;41.57;101552.83;1700486;83;21271;-56